Time;durP1;ratioP1;P1;durP2;ratioP2;P2;SDS_P1;SDS_P2;PMS_P1;PMS_P2;Temp;Humidity;BMP_temperature;BMP_pressure;BME280_temperature;BME280_humidity;BME280_pressure;Samples;Min_cycle;Max_cycle;Signal;HPM_P1;HPM_P2
2022/09/13 00:01:13;;;;;;;13.90;11.60;;;;;;;11.39;78.52;99907.65;105912;1273;112484;-72
2022/09/13 00:03:46;;;;;;;15.90;12.70;;;;;;;11.38;78.52;99909.80;105967;1273;138699;-72
2022/09/13 00:06:20;;;;;;;14.70;12.20;;;;;;;11.35;78.66;99911.84;105993;1273;109221;-72
2022/09/13 00:08:53;;;;;;;13.70;12.00;;;;;;;11.34;78.78;99913.28;105898;1274;139343;-72
2022/09/13 00:11:28;;;;;;;14.20;11.60;;;;;;;11.32;78.76;99914.40;106059;1273;97851;-72
2022/09/13 00:14:00;;;;;;;16.50;11.50;;;;;;;11.31;78.87;99911.99;105968;1273;138906;-72
2022/09/13 00:16:32;;;;;;;13.40;11.70;;;;;;;11.30;78.93;99915.14;106006;1273;109497;-72
2022/09/13 00:19:04;;;;;;;14.80;11.80;;;;;;;11.31;78.83;99912.53;105869;1274;109386;-72
2022/09/13 00:21:37;;;;;;;16.00;12.30;;;;;;;11.29;78.86;99910.83;105977;1273;139374;-72
2022/09/13 00:24:10;;;;;;;15.90;12.00;;;;;;;11.28;78.80;99909.14;106075;1273;97821;-72
2022/09/13 00:26:42;;;;;;;17.20;12.40;;;;;;;11.26;78.96;99909.77;105941;1272;139357;-72
2022/09/13 00:29:14;;;;;;;17.70;11.40;;;;;;;11.24;78.85;99907.92;105996;1273;109313;-72
2022/09/13 00:31:45;;;;;;;14.80;11.80;;;;;;;11.23;78.85;99906.40;106050;1273;108850;-72
2022/09/13 00:34:18;;;;;;;14.20;12.20;;;;;;;11.20;79.04;99905.31;106059;1272;97972;-72
2022/09/13 00:36:49;;;;;;;14.40;11.90;;;;;;;11.19;79.13;99905.02;105985;1273;97985;-73
2022/09/13 00:39:21;;;;;;;20.30;12.10;;;;;;;11.17;79.10;99907.52;105856;1273;139408;-72
2022/09/13 00:41:53;;;;;;;16.30;12.70;;;;;;;11.14;79.03;99906.76;106058;1273;107733;-72
2022/09/13 00:44:53;;;;;;;12.70;11.30;;;;;;;11.13;79.09;99902.27;106273;1273;138857;-72
2022/09/13 00:47:32;;;;;;;13.90;12.00;;;;;;;11.10;79.13;99904.65;106441;1273;97926;-72
2022/09/13 00:50:11;;;;;;;13.20;11.80;;;;;;;11.08;79.17;99902.31;106056;1273;139446;-72
2022/09/13 00:52:46;;;;;;;15.00;11.20;;;;;;;11.05;79.25;99906.42;106015;1273;112042;-72
2022/09/13 00:55:24;;;;;;;16.90;13.20;;;;;;;11.02;79.23;99907.25;106053;1273;108905;-72
2022/09/13 00:58:01;;;;;;;18.90;13.90;;;;;;;10.99;79.44;99906.50;105887;1273;139371;-72
2022/09/13 01:00:33;;;;;;;19.80;14.60;;;;;;;10.96;79.50;99905.73;105954;1274;97891;-72
2022/09/13 01:03:10;;;;;;;19.00;15.50;;;;;;;10.94;79.72;99908.41;105920;1273;138608;-72
2022/09/13 01:05:47;;;;;;;20.00;16.10;;;;;;;10.92;80.01;99906.08;106081;1273;112953;-72
2022/09/13 01:08:21;;;;;;;20.80;15.60;;;;;;;10.87;80.00;99904.69;105833;1274;142808;-71
2022/09/13 01:10:57;;;;;;;21.90;16.00;;;;;;;10.83;80.16;99904.34;106020;1273;108731;-72
2022/09/13 01:13:31;;;;;;;19.30;15.30;;;;;;;10.81;80.16;99904.95;105963;1273;97943;-72
2022/09/13 01:16:03;;;;;;;18.10;15.50;;;;;;;10.76;80.13;99902.16;105990;1273;139120;-72
2022/09/13 01:18:36;;;;;;;20.00;15.60;;;;;;;10.71;80.08;99900.98;106025;1273;112704;-72
2022/09/13 01:21:52;;;;;;;19.00;15.10;;;;;;;10.64;80.13;99896.05;105885;1273;138815;-72
2022/09/13 01:24:54;;;;;;;19.20;16.00;;;;;;;10.57;80.35;99895.06;105619;1279;109209;-72
2022/09/13 01:27:41;;;;;;;22.90;16.10;;;;;;;10.53;80.82;99892.09;105497;1279;138870;-72
2022/09/13 01:30:17;;;;;;;16.20;14.20;;;;;;;10.48;80.66;99897.33;105589;1280;97849;-72
2022/09/13 01:33:06;;;;;;;19.50;15.50;;;;;;;10.45;80.82;99891.89;105724;1279;141656;-72
2022/09/13 01:35:54;;;;;;;20.40;15.90;;;;;;;10.43;81.07;99888.64;105562;1279;107683;-72
2022/09/13 01:38:44;;;;;;;22.70;15.00;;;;;;;10.39;80.97;99887.73;105471;1279;140126;-72
2022/09/13 01:41:34;;;;;;;19.80;14.90;;;;;;;10.37;81.20;99891.63;105658;1279;97986;-72
2022/09/13 01:44:15;;;;;;;20.20;15.20;;;;;;;10.34;81.32;99889.69;105495;1279;138758;-72
2022/09/13 01:46:52;;;;;;;21.20;15.50;;;;;;;10.30;81.32;99890.87;105620;1279;112627;-72
2022/09/13 01:49:33;;;;;;;19.80;14.80;;;;;;;10.28;81.45;99888.67;105539;1279;109070;-71
2022/09/13 01:52:11;;;;;;;19.90;14.60;;;;;;;10.23;81.10;99883.98;105516;1279;139289;-71
2022/09/13 01:54:54;;;;;;;21.90;15.20;;;;;;;10.19;81.26;99881.50;105696;1279;98027;-71
2022/09/13 01:57:32;;;;;;;20.00;15.20;;;;;;;10.16;81.59;99881.41;105673;1279;138610;-71
2022/09/13 02:00:09;;;;;;;24.10;15.10;;;;;;;10.13;81.46;99878.27;106001;1274;112204;-71
2022/09/13 02:02:49;;;;;;;30.20;17.00;;;;;;;10.11;81.58;99878.67;105904;1273;139044;-71
2022/09/13 02:05:28;;;;;;;26.50;15.80;;;;;;;10.08;81.82;99879.30;106814;1274;108510;-71
2022/09/13 02:08:05;;;;;;;21.00;15.00;;;;;;;10.06;81.95;99881.11;106093;1273;139200;-70
2022/09/13 02:10:39;;;;;;;;;;;;;;;10.03;82.00;99872.69;106080;1273;98475;-71
2022/09/13 02:13:18;;;;;;;20.80;13.70;;;;;;;9.98;82.05;99873.55;106111;1273;112541;-71
2022/09/13 02:15:56;;;;;;;22.70;14.20;;;;;;;9.96;82.24;99870.17;105995;1273;138621;-71
2022/09/13 02:18:34;;;;;;;18.70;13.60;;;;;;;9.94;82.08;99869.00;105991;1274;109032;-71
2022/09/13 02:21:10;;;;;;;16.80;12.80;;;;;;;9.92;82.07;99868.21;105924;1273;138934;-71
2022/09/13 02:23:47;;;;;;;21.70;12.20;;;;;;;9.89;81.94;99867.14;106061;1273;97999;-71
2022/09/13 02:26:21;;;;;;;15.00;12.10;;;;;;;9.85;82.08;99865.68;105965;1271;138549;-71
2022/09/13 02:28:55;;;;;;;56.70;10.30;;;;;;;9.83;82.08;99861.61;106074;1272;108981;-71
2022/09/13 02:31:34;;;;;;;37.50;13.50;;;;;;;9.79;82.15;99857.94;106058;1273;108507;-71
2022/09/13 02:34:11;;;;;;;33.40;14.90;;;;;;;9.75;82.27;99858.60;105911;1274;138362;-71
2022/09/13 02:36:46;;;;;;;31.40;15.20;;;;;;;9.71;82.31;99860.98;106061;1273;97839;-71
2022/09/13 02:39:22;;;;;;;35.30;13.70;;;;;;;9.68;82.59;99851.67;106024;1273;138314;-71
2022/09/13 02:42:00;;;;;;;33.60;11.50;;;;;;;9.67;82.45;99851.39;106330;1274;109007;-71
2022/09/13 02:44:36;;;;;;;36.90;10.20;;;;;;;9.64;82.43;99854.98;105937;1273;138671;-71
2022/09/13 02:47:24;;;;;;;48.50;8.60;;;;;;;9.61;82.44;99854.54;105826;1272;97914;-71
2022/09/13 02:50:05;;;;;;;43.70;8.80;;;;;;;9.59;82.43;99850.45;105949;1273;138707;-71
2022/09/13 02:52:50;;;;;;;26.90;10.00;;;;;;;9.56;82.29;99850.23;106017;1274;112478;-71
2022/09/13 02:55:28;;;;;;;16.90;10.10;;;;;;;9.49;81.99;99847.67;104950;1274;1429705;-71
2022/09/13 02:58:09;;;;;;;62.90;10.50;;;;;;;9.42;81.92;99845.48;105993;1273;138778;-72
2022/09/13 03:00:41;;;;;;;36.00;11.40;;;;;;;9.34;81.85;99841.43;106102;1273;97842;-71
2022/09/13 03:03:16;;;;;;;34.00;10.80;;;;;;;9.28;81.77;99844.23;105936;1273;138366;-71
2022/09/13 03:05:48;;;;;;;34.40;11.20;;;;;;;9.21;81.86;99837.19;106127;1273;112615;-71
2022/09/13 03:08:21;;;;;;;28.60;10.60;;;;;;;9.15;81.91;99836.83;105999;1273;138686;-71
2022/09/13 03:11:02;;;;;;;46.30;10.60;;;;;;;9.11;81.74;99837.48;106229;1273;108955;-72
2022/09/13 03:13:53;;;;;;;20.10;10.10;;;;;;;9.05;81.68;99832.16;106051;1273;97826;-71
2022/09/13 03:16:41;;;;;;;14.40;11.40;;;;;;;8.99;81.64;99833.55;105968;1274;98282;-71
2022/09/13 03:19:30;;;;;;;12.60;10.60;;;;;;;8.94;81.70;99830.23;106043;1273;112313;-71
2022/09/13 03:22:17;;;;;;;12.10;10.20;;;;;;;8.90;81.77;99826.05;105955;1273;138767;-71
2022/09/13 03:24:58;;;;;;;11.80;10.30;;;;;;;8.86;81.85;99824.98;106099;1273;108836;-71
2022/09/13 03:27:35;;;;;;;14.30;10.60;;;;;;;8.82;81.86;99820.76;105957;1273;138579;-72
2022/09/13 03:30:09;;;;;;;14.00;10.40;;;;;;;8.79;81.89;99818.93;106100;1273;97700;-71
2022/09/13 03:32:50;;;;;;;12.00;10.10;;;;;;;8.76;81.85;99821.97;105963;1273;138589;-72
2022/09/13 03:35:32;;;;;;;12.70;10.30;;;;;;;8.71;81.85;99816.92;106119;1272;107816;-71
2022/09/13 03:38:09;;;;;;;10.20;8.90;;;;;;;8.69;82.03;99816.84;105982;1273;138910;-72
2022/09/13 03:40:48;;;;;;;10.90;9.50;;;;;;;8.67;82.22;99811.54;106102;1273;97852;-72
2022/09/13 03:43:25;;;;;;;12.30;9.30;;;;;;;8.68;82.19;99811.34;106306;1273;98589;-72
2022/09/13 03:46:02;;;;;;;9.90;8.90;;;;;;;8.66;82.14;99812.08;106052;1273;138397;-72
2022/09/13 03:48:37;;;;;;;10.60;9.20;;;;;;;8.65;82.18;99808.64;105972;1274;108884;-72
2022/09/13 03:51:11;;;;;;;14.00;10.30;;;;;;;8.64;82.11;99808.35;105971;1273;138428;-72
2022/09/13 03:53:47;;;;;;;11.30;9.20;;;;;;;8.61;81.98;99812.05;106094;1273;97848;-72
2022/09/13 03:56:20;;;;;;;11.90;10.10;;;;;;;8.59;82.08;99807.62;106049;1273;138439;-72
2022/09/13 03:58:52;;;;;;;12.40;9.90;;;;;;;8.57;82.11;99808.70;106055;1274;112582;-71
2022/09/13 04:01:25;;;;;;;13.00;9.90;;;;;;;8.57;82.11;99806.62;106082;1273;108876;-72
2022/09/13 04:03:57;;;;;;;11.70;9.70;;;;;;;8.59;82.25;99801.55;105844;1274;139239;-72
2022/09/13 04:06:29;;;;;;;13.50;9.50;;;;;;;8.61;82.17;99801.99;106009;1274;97847;-72
2022/09/13 04:09:01;;;;;;;11.90;9.60;;;;;;;8.61;82.09;99801.82;105973;1274;138314;-72
2022/09/13 04:11:33;;;;;;;13.30;9.70;;;;;;;8.62;82.14;99798.70;105948;1274;112516;-72
2022/09/13 04:14:05;;;;;;;12.80;10.10;;;;;;;8.61;82.23;99794.70;105902;1273;139196;-72
2022/09/13 04:16:37;;;;;;;14.30;11.10;;;;;;;8.62;82.16;99798.52;105908;1273;107757;-72
2022/09/13 04:19:09;;;;;;;14.30;10.60;;;;;;;8.62;82.24;99800.24;105996;1275;98595;-71
2022/09/13 04:21:41;;;;;;;12.10;10.20;;;;;;;8.64;82.23;99801.22;105942;1274;138678;-70
2022/09/13 04:24:13;;;;;;;12.30;10.60;;;;;;;8.68;82.36;99801.42;106953;1274;112792;-71
2022/09/13 04:26:48;;;;;;;13.90;9.90;;;;;;;8.74;82.41;99798.30;106275;1274;138616;-73
2022/09/13 04:29:21;;;;;;;15.70;10.10;;;;;;;8.80;82.43;99799.66;106080;1274;108095;-71
2022/09/13 04:31:55;;;;;;;12.90;10.20;;;;;;;8.90;82.31;99804.03;106070;1274;138848;-71
2022/09/13 04:34:27;;;;;;;12.70;9.90;;;;;;;9.00;82.27;99801.77;106412;1273;97816;-72
2022/09/13 04:36:59;;;;;;;14.40;10.00;;;;;;;9.16;82.10;99802.84;106148;1274;112403;-71
2022/09/13 04:39:31;;;;;;;11.40;10.10;;;;;;;9.29;82.00;99801.16;105930;1274;139315;-72
2022/09/13 04:42:03;;;;;;;14.80;10.70;;;;;;;9.43;81.69;99801.54;106008;1274;107954;-72
2022/09/13 04:44:35;;;;;;;13.50;10.40;;;;;;;9.57;81.44;99801.77;105873;1274;139860;-72
2022/09/13 04:47:08;;;;;;;11.90;9.40;;;;;;;9.75;81.27;99805.13;106020;1274;98410;-71
2022/09/13 04:49:40;;;;;;;15.90;10.30;;;;;;;9.94;80.81;99800.59;106002;1274;112572;-72
2022/09/13 04:52:12;;;;;;;15.30;10.10;;;;;;;10.12;80.54;99800.81;105994;1274;109050;-72
2022/09/13 04:54:46;;;;;;;11.60;9.70;;;;;;;10.35;80.55;99801.01;105969;1274;108950;-72
2022/09/13 04:57:18;;;;;;;13.80;9.70;;;;;;;10.64;79.86;99800.75;105871;1273;138633;-72
2022/09/13 04:59:50;;;;;;;11.50;9.00;;;;;;;10.95;79.33;99801.06;105968;1273;98315;-71
2022/09/13 05:02:22;;;;;;;11.60;8.80;;;;;;;11.43;78.46;99796.08;105866;1273;138873;-71
2022/09/13 05:04:54;;;;;;;12.70;8.00;;;;;;;11.95;77.32;99793.46;106070;1273;107020;-72
2022/09/13 05:07:26;;;;;;;13.90;8.50;;;;;;;12.48;76.21;99797.15;105955;1274;109029;-72
2022/09/13 05:09:57;;;;;;;11.40;7.90;;;;;;;13.00;75.49;99788.70;105908;1273;138594;-72
2022/09/13 05:12:29;;;;;;;12.50;8.30;;;;;;;13.60;75.05;99786.21;106126;1273;97833;-71
2022/09/13 05:15:01;;;;;;;9.50;8.30;;;;;;;14.20;74.16;99786.16;106019;1273;138421;-75
2022/09/13 05:17:33;;;;;;;12.30;7.90;;;;;;;14.74;73.50;99783.69;106132;1273;108085;-75
2022/09/13 05:20:07;;;;;;;10.00;7.40;;;;;;;15.38;72.66;99779.27;106041;1273;140595;-74
2022/09/13 05:22:39;;;;;;;11.20;7.70;;;;;;;15.95;71.09;99776.04;107282;1273;96233;-74
2022/09/13 05:25:11;;;;;;;11.10;8.30;;;;;;;16.43;69.68;99774.56;106175;1272;97774;-73
2022/09/13 05:27:44;;;;;;;13.90;7.70;;;;;;;16.91;68.36;99778.88;105903;1274;138435;-74
2022/09/13 05:30:16;;;;;;;12.90;7.40;;;;;;;17.40;67.15;99780.12;105991;1272;110448;-74
2022/09/13 05:32:48;;;;;;;17.00;8.30;;;;;;;17.85;65.74;99777.92;106008;1273;138025;-76
2022/09/13 05:35:21;;;;;;;13.40;7.10;;;;;;;18.51;64.85;99778.52;106180;1273;97942;-73
2022/09/13 05:37:53;;;;;;;13.00;6.90;;;;;;;19.32;63.57;99775.19;105963;1273;138040;-73
2022/09/13 05:40:25;;;;;;;9.30;6.70;;;;;;;20.09;62.12;99768.17;106014;1274;111678;-74
2022/09/13 05:42:57;;;;;;;10.20;7.20;;;;;;;20.87;60.89;99767.70;106090;1273;109058;-74
2022/09/13 05:45:29;;;;;;;9.30;7.60;;;;;;;21.69;59.48;99760.56;106028;1273;139609;-72
2022/09/13 05:48:01;;;;;;;8.60;7.20;;;;;;;22.64;58.11;99759.71;106034;1273;97762;-74
2022/09/13 05:50:36;;;;;;;10.50;7.00;;;;;;;23.63;56.81;99745.91;105956;1273;137612;-73
2022/09/13 05:53:28;;;;;;;11.30;7.50;;;;;;;24.67;55.08;99741.00;106102;1273;112485;-72
2022/09/13 05:56:00;;;;;;;15.20;7.50;;;;;;;25.51;53.58;99731.70;106010;1274;138100;-85
2022/09/13 05:58:33;;;;;;;9.60;6.80;;;;;;;26.29;51.93;99731.73;105985;1273;109145;-72
2022/09/13 06:01:06;;;;;;;15.60;8.50;;;;;;;26.93;50.55;99729.05;105895;1274;97904;-72
2022/09/13 06:03:38;;;;;;;22.50;9.50;;;;;;;27.43;49.33;99720.86;105976;1273;137858;-72
2022/09/13 06:06:11;;;;;;;15.10;8.20;;;;;;;27.86;48.06;99718.86;106097;1273;112928;-73
2022/09/13 06:08:44;;;;;;;14.40;8.50;;;;;;;28.28;47.25;99716.38;105985;1273;137789;-75
2022/09/13 06:11:16;;;;;;;21.40;8.80;;;;;;;28.73;46.06;99714.33;106041;1273;107916;-74
2022/09/13 06:13:48;;;;;;;18.00;8.70;;;;;;;29.21;45.16;99713.09;107533;1273;139145;-79
2022/09/13 06:16:21;;;;;;;17.40;8.00;;;;;;;29.59;44.20;99710.65;107660;1273;96509;-76
2022/09/13 06:18:53;;;;;;;17.10;7.90;;;;;;;29.97;43.39;99709.84;107613;1273;112492;-76
2022/09/13 06:21:26;;;;;;;20.20;7.90;;;;;;;30.36;42.56;99712.56;107348;1273;137959;-75
2022/09/13 06:24:00;;;;;;;16.60;8.70;;;;;;;30.85;41.34;99718.99;106443;1273;109630;-75
2022/09/13 06:26:32;;;;;;;20.30;8.80;;;;;;;31.01;40.33;99715.56;106013;1275;137921;-75
2022/09/13 06:29:04;;;;;;;16.60;9.00;;;;;;;31.10;39.99;99715.07;106118;1273;98235;-75
2022/09/13 06:31:37;;;;;;;13.30;8.60;;;;;;;31.16;40.22;99715.71;106041;1274;111857;-73
2022/09/13 06:34:14;;;;;;;14.00;8.00;;;;;;;31.18;40.04;99720.73;106843;1273;139208;-74
2022/09/13 06:36:46;;;;;;;13.50;8.60;;;;;;;31.10;39.65;99719.79;105990;1274;108886;-74
2022/09/13 06:39:18;;;;;;;13.00;8.10;;;;;;;31.07;38.99;99718.77;105974;1273;139531;-72
2022/09/13 06:41:50;;;;;;;13.60;7.40;;;;;;;31.09;38.08;99724.96;106086;1273;97960;-75
2022/09/13 06:44:24;;;;;;;12.20;7.60;;;;;;;31.11;37.78;99717.77;105984;1273;138138;-73
2022/09/13 06:46:56;;;;;;;14.50;7.80;;;;;;;31.28;37.34;99720.14;106122;1273;108750;-74
2022/09/13 06:49:30;;;;;;;10.20;7.50;;;;;;;31.26;36.53;99718.86;106109;1273;110676;-74
2022/09/13 06:52:02;;;;;;;12.00;7.10;;;;;;;31.43;36.28;99712.73;105987;1273;137832;-75
2022/09/13 06:54:34;;;;;;;11.80;7.40;;;;;;;31.69;35.64;99715.10;105950;1274;97923;-71
2022/09/13 06:57:06;;;;;;;11.80;7.30;;;;;;;31.74;35.73;99715.35;105969;1272;140443;-75
2022/09/13 06:59:38;;;;;;;8.30;7.20;;;;;;;31.84;35.35;99711.69;106095;1273;107814;-73
2022/09/13 07:02:12;;;;;;;13.80;7.40;;;;;;;31.67;34.94;99711.36;105850;1274;139484;-77
2022/09/13 07:04:44;;;;;;;11.30;7.50;;;;;;;31.48;35.30;99712.77;106018;1274;97936;-74
2022/09/13 07:07:16;;;;;;;12.60;7.40;;;;;;;31.48;35.04;99711.11;105996;1273;97929;-73
2022/09/13 07:09:50;;;;;;;10.00;6.60;;;;;;;31.49;34.45;99712.73;105984;1273;138881;-74
2022/09/13 07:12:22;;;;;;;9.70;6.80;;;;;;;31.46;34.31;99710.27;106055;1273;111522;-74
2022/09/13 07:14:54;;;;;;;11.00;7.30;;;;;;;31.28;33.99;99707.98;105982;1273;137810;-73
2022/09/13 07:17:27;;;;;;;8.50;7.00;;;;;;;31.28;34.19;99711.02;106231;1273;97869;-75
2022/09/13 07:20:04;;;;;;;11.30;7.00;;;;;;;31.22;33.72;99710.17;106195;1273;139570;-74
2022/09/13 07:22:36;;;;;;;10.10;6.90;;;;;;;31.15;33.77;99710.11;106167;1273;112549;-74
2022/09/13 07:25:10;;;;;;;8.70;7.10;;;;;;;31.29;33.55;99709.61;106015;1274;109131;-72
2022/09/13 07:27:42;;;;;;;8.90;6.60;;;;;;;31.42;33.01;99705.42;107580;1272;139058;-74
2022/09/13 07:30:14;;;;;;;7.70;6.10;;;;;;;31.61;33.08;99701.40;107660;1273;96270;-75
2022/09/13 07:32:46;;;;;;;11.60;6.00;;;;;;;31.65;32.84;99699.48;107542;1273;138258;-73
2022/09/13 07:35:18;;;;;;;7.90;6.60;;;;;;;31.68;32.90;99699.70;107619;1273;112552;-74
2022/09/13 07:37:51;;;;;;;13.30;6.80;;;;;;;32.00;32.86;99700.05;106725;1274;138856;-74
2022/09/13 07:40:24;;;;;;;9.00;6.70;;;;;;;32.29;32.80;99697.65;106956;1272;107939;-75
2022/09/13 07:42:56;;;;;;;11.20;5.80;;;;;;;32.52;32.10;99698.92;106804;1273;99997;-74
2022/09/13 07:45:28;;;;;;;8.20;6.00;;;;;;;32.62;32.07;99696.58;106755;1274;138405;-73
2022/09/13 07:48:01;;;;;;;9.80;5.30;;;;;;;32.83;32.02;99700.58;107102;1273;110879;-73
2022/09/13 07:50:33;;;;;;;9.90;5.70;;;;;;;32.81;31.39;99695.53;106937;1274;137773;-74
2022/09/13 07:53:05;;;;;;;11.70;5.30;;;;;;;32.83;31.85;99697.37;107375;1273;108891;-73
2022/09/13 07:55:37;;;;;;;5.60;3.20;;;;;;;33.06;31.26;99698.30;107417;1273;97154;-75
2022/09/13 07:58:09;;;;;;;7.80;3.90;;;;;;;33.16;30.12;99700.70;107285;1273;137498;-74
2022/09/13 08:00:41;;;;;;;9.80;3.90;;;;;;;33.23;30.13;99700.20;106813;1274;112527;-74
2022/09/13 08:03:13;;;;;;;4.20;3.40;;;;;;;33.33;30.06;99699.52;105471;1273;137791;-74
2022/09/13 08:05:45;;;;;;;5.60;3.20;;;;;;;33.60;30.13;99699.80;105570;1273;108325;-74
2022/09/13 08:08:18;;;;;;;11.90;3.70;;;;;;;33.83;29.72;99701.45;105647;1273;137976;-75
2022/09/13 08:10:51;;;;;;;5.20;2.50;;;;;;;33.90;29.10;99696.15;107308;1274;97850;-74
2022/09/13 08:13:23;;;;;;;7.60;2.80;;;;;;;33.66;28.48;99695.33;107498;1273;112440;-73
2022/09/13 08:15:56;;;;;;;5.60;2.60;;;;;;;33.30;28.12;99691.96;107599;1272;138232;-74
2022/09/13 08:18:28;;;;;;;7.70;3.00;;;;;;;32.93;28.53;99691.31;107664;1273;107925;-74
2022/09/13 08:21:01;;;;;;;11.40;3.00;;;;;;;32.74;28.85;99687.54;107531;1273;141396;-74
2022/09/13 08:23:33;;;;;;;7.40;2.50;;;;;;;32.32;28.59;99681.80;107713;1272;96176;-75
2022/09/13 08:26:06;;;;;;;5.70;2.80;;;;;;;32.06;28.74;99685.08;106949;1272;138733;-76
2022/09/13 08:28:40;;;;;;;7.50;2.90;;;;;;;31.53;28.59;99686.77;106031;1274;108866;-76
2022/09/13 08:31:15;;;;;;;6.90;2.80;;;;;;;31.11;28.72;99684.83;106475;1273;108755;-74
2022/09/13 08:33:48;;;;;;;6.70;2.30;;;;;;;30.84;29.45;99687.52;105946;1274;137993;-76
2022/09/13 08:36:22;;;;;;;4.40;2.70;;;;;;;30.78;30.04;99690.88;106151;1273;97945;-75
2022/09/13 08:38:57;;;;;;;7.40;2.50;;;;;;;30.95;29.76;99684.61;105898;1274;137618;-77
2022/09/13 08:41:56;;;;;;;5.40;2.80;;;;;;;30.80;29.50;99686.80;105983;1274;108504;-76
2022/09/13 08:44:31;;;;;;;3.80;2.00;;;;;;;30.64;29.86;99685.52;105969;1273;137854;-74
2022/09/13 08:47:27;;;;;;;4.80;2.30;;;;;;;30.59;29.39;99689.90;105962;1273;97843;-72
2022/09/13 08:50:06;;;;;;;5.30;2.30;;;;;;;29.98;29.62;99684.41;105935;1273;137697;-71
2022/09/13 08:52:46;;;;;;;3.80;2.30;;;;;;;29.57;30.37;99680.84;106104;1273;112717;-71
2022/09/13 08:55:28;;;;;;;3.90;2.10;;;;;;;29.52;30.56;99680.00;106335;1274;107809;-70
2022/09/13 08:58:14;;;;;;;4.30;2.30;;;;;;;29.52;30.81;99676.61;105942;1273;138071;-70
2022/09/13 09:00:53;;;;;;;5.80;1.60;;;;;;;29.65;30.91;99671.05;106146;1273;97848;-70
2022/09/13 18:07:31;;;;;;;12.60;7.20;;;;;;;16.29;65.60;99227.63;104713;1271;139297;-71
2022/09/13 18:10:04;;;;;;;10.70;7.20;;;;;;;16.28;65.60;99225.71;105529;1279;111007;-72
2022/09/13 18:12:56;;;;;;;11.00;7.20;;;;;;;16.27;65.68;99226.50;105654;1281;138742;-72
2022/09/13 18:15:28;;;;;;;9.60;7.00;;;;;;;16.27;65.68;99229.52;106938;1279;109128;-71
2022/09/13 18:18:00;;;;;;;11.20;7.10;;;;;;;16.26;65.66;99228.34;106897;1280;138860;-72
2022/09/13 18:20:31;;;;;;;12.10;7.20;;;;;;;16.26;65.65;99225.71;106024;1281;97849;-72
2022/09/13 18:23:09;;;;;;;11.50;6.80;;;;;;;16.27;65.67;99219.52;105477;1281;111511;-70
2022/09/13 18:25:41;;;;;;;10.40;7.30;;;;;;;16.27;65.62;99219.48;105427;1279;139148;-71
2022/09/13 18:28:14;;;;;;;9.80;7.30;;;;;;;16.28;65.67;99212.05;105633;1279;108978;-73
2022/09/13 18:30:54;;;;;;;9.00;6.90;;;;;;;16.28;65.73;99209.06;105369;1279;138871;-71
2022/09/13 18:33:28;;;;;;;9.70;6.70;;;;;;;16.26;65.70;99204.49;105446;1281;97851;-70
2022/09/13 18:36:03;;;;;;;10.90;7.00;;;;;;;16.26;65.79;99201.89;105480;1279;140057;-70
2022/09/13 18:38:37;;;;;;;12.00;7.00;;;;;;;16.25;65.74;99201.07;105556;1279;110051;-70
2022/09/13 18:41:11;;;;;;;12.50;7.40;;;;;;;16.23;65.79;99199.81;105672;1279;108203;-69
2022/09/13 18:43:49;;;;;;;10.50;7.30;;;;;;;16.21;65.83;99194.55;105712;1279;139658;-70
2022/09/13 18:46:30;;;;;;;10.30;7.00;;;;;;;16.19;65.95;99188.02;105445;1281;97875;-71
2022/09/13 18:49:03;;;;;;;12.00;7.80;;;;;;;16.18;65.95;99184.27;105552;1279;139439;-72
2022/09/13 18:51:37;;;;;;;9.70;7.10;;;;;;;16.16;65.97;99179.80;105496;1281;109095;-70
2022/09/13 18:54:11;;;;;;;10.60;8.20;;;;;;;16.15;66.21;99176.89;105301;1281;139499;-72
2022/09/13 18:56:43;;;;;;;14.40;7.60;;;;;;;16.14;66.26;99176.79;105414;1280;97863;-71
2022/09/13 18:59:15;;;;;;;13.20;7.40;;;;;;;16.12;66.25;99173.95;105548;1279;97845;-72
2022/09/13 19:01:47;;;;;;;9.80;7.20;;;;;;;16.11;66.35;99171.58;105572;1281;138420;-72
2022/09/13 19:04:20;;;;;;;9.70;7.50;;;;;;;16.10;66.40;99169.16;105716;1279;108085;-72
2022/09/13 19:06:54;;;;;;;14.40;7.90;;;;;;;16.09;66.41;99165.41;105504;1279;138415;-72
2022/09/13 19:09:26;;;;;;;13.30;7.90;;;;;;;16.08;66.48;99165.30;105645;1281;97959;-72
2022/09/13 19:11:58;;;;;;;11.30;8.10;;;;;;;16.07;66.56;99164.30;105524;1281;138551;-73
2022/09/13 19:14:31;;;;;;;12.00;7.80;;;;;;;16.06;66.62;99164.23;105599;1281;113181;-71
2022/09/13 19:17:03;;;;;;;10.60;8.30;;;;;;;16.06;66.56;99159.01;105590;1281;108895;-72
2022/09/13 19:19:35;;;;;;;9.40;7.30;;;;;;;16.06;66.69;99163.52;105322;1280;138861;-72
2022/09/13 19:22:07;;;;;;;11.90;8.20;;;;;;;16.05;66.71;99156.61;105428;1281;97728;-73
2022/09/13 19:24:39;;;;;;;13.70;8.10;;;;;;;16.04;66.83;99161.05;105528;1279;139089;-71
2022/09/13 19:27:12;;;;;;;11.90;8.40;;;;;;;16.03;66.77;99157.58;105519;1281;111512;-74
2022/09/13 19:29:44;;;;;;;11.10;7.90;;;;;;;16.03;66.98;99158.69;105615;1281;108984;-74
2022/09/13 19:32:15;;;;;;;12.50;8.50;;;;;;;16.02;67.13;99156.48;105486;1281;107813;-72
2022/09/13 19:34:47;;;;;;;10.80;8.10;;;;;;;16.00;67.22;99158.84;105355;1281;97938;-72
2022/09/13 19:37:19;;;;;;;13.40;8.50;;;;;;;16.00;67.37;99155.73;105351;1279;138460;-71
2022/09/13 19:39:52;;;;;;;11.10;7.70;;;;;;;15.99;67.42;99152.26;105508;1279;112100;-72
2022/09/13 19:42:24;;;;;;;10.40;8.00;;;;;;;16.00;67.49;99140.84;105565;1279;139820;-70
2022/09/13 19:44:56;;;;;;;9.60;7.90;;;;;;;15.99;67.57;99134.77;105487;1279;108854;-72
2022/09/13 19:47:28;;;;;;;11.90;8.50;;;;;;;15.99;67.70;99133.37;105516;1281;99256;-72
2022/09/13 19:50:20;;;;;;;8.80;7.70;;;;;;;15.97;67.76;99130.65;105470;1279;97841;-72
2022/09/13 19:52:52;;;;;;;10.30;8.50;;;;;;;15.96;67.92;99133.21;105334;1281;111483;-72
2022/09/13 19:55:24;;;;;;;12.70;8.40;;;;;;;15.95;68.02;99125.41;105352;1279;140848;-71
2022/09/13 19:57:56;;;;;;;11.40;8.80;;;;;;;15.93;68.09;99126.02;105555;1279;108892;-72
2022/09/13 20:00:29;;;;;;;13.70;8.50;;;;;;;15.91;68.18;99125.32;105253;1281;142897;-72
2022/09/13 20:03:02;;;;;;;10.80;8.40;;;;;;;15.90;68.23;99126.60;105437;1281;97876;-73
2022/09/13 20:05:36;;;;;;;10.00;8.10;;;;;;;15.89;68.31;99120.24;105632;1279;112468;-71
2022/09/13 20:08:08;;;;;;;14.30;8.20;;;;;;;15.88;68.42;99118.38;105481;1279;137348;-70
2022/09/13 20:10:40;;;;;;;10.30;8.70;;;;;;;15.87;68.41;99120.52;105593;1281;107814;-71
2022/09/13 20:13:12;;;;;;;13.60;8.80;;;;;;;15.87;68.54;99107.25;105377;1279;139284;-71
2022/09/13 20:15:44;;;;;;;10.10;8.50;;;;;;;15.86;68.55;99113.25;105686;1281;97876;-74
2022/09/13 20:18:16;;;;;;;10.80;8.40;;;;;;;15.84;68.62;99111.29;105403;1281;140937;-70
2022/09/13 20:20:49;;;;;;;9.70;7.90;;;;;;;15.86;68.80;99112.75;105575;1281;108953;-70
2022/09/13 20:23:22;;;;;;;13.30;8.20;;;;;;;15.86;68.74;99112.24;105551;1279;108023;-70
2022/09/13 20:25:54;;;;;;;12.50;7.90;;;;;;;15.87;68.91;99101.30;105289;1281;138667;-71
2022/09/13 20:28:26;;;;;;;12.00;8.20;;;;;;;15.87;68.79;99100.38;105671;1279;97856;-71
2022/09/13 20:31:00;;;;;;;11.10;8.50;;;;;;;15.89;68.81;99098.48;105506;1279;139389;-73
2022/09/13 20:33:34;;;;;;;10.90;7.90;;;;;;;15.91;68.87;99090.27;105609;1279;108973;-73
2022/09/13 20:36:08;;;;;;;10.00;8.20;;;;;;;15.93;68.81;99091.31;105429;1281;139106;-72
2022/09/13 20:38:40;;;;;;;10.20;8.50;;;;;;;15.96;68.95;99089.41;105478;1279;97826;-74
2022/09/13 20:41:14;;;;;;;10.90;8.10;;;;;;;15.98;68.95;99090.15;105652;1281;97827;-73
2022/09/13 20:43:47;;;;;;;11.60;8.40;;;;;;;16.00;68.84;99089.44;105438;1279;138540;-73
2022/09/13 20:46:21;;;;;;;13.10;7.70;;;;;;;16.03;68.91;99084.17;105619;1281;108616;-73
2022/09/13 20:48:53;;;;;;;14.10;8.60;;;;;;;16.05;69.00;99081.22;105436;1279;139534;-72
2022/09/13 20:51:26;;;;;;;10.10;8.30;;;;;;;16.06;68.93;99081.78;105519;1279;97850;-72